Time;durP1;ratioP1;P1;durP2;ratioP2;P2;SDS_P1;SDS_P2;PMS_P1;PMS_P2;Temp;Humidity;BMP_temperature;BMP_pressure;BME280_temperature;BME280_humidity;BME280_pressure;Samples;Min_cycle;Max_cycle;Signal;HPM_P1;HPM_P2
2021/05/11 00:01:47;;;;;;;9.07;3.00;;;;;;;;;;4994536;28;37200;-77
2021/05/11 00:04:13;;;;;;;12.38;4.10;;;;;;;;;;4983189;28;38240;-77
2021/05/11 00:06:39;;;;;;;10.55;3.85;;;;;;;;;;4983740;28;35751;-77
2021/05/11 00:09:06;;;;;;;9.13;3.83;;;;;;;;;;4991702;28;38913;-77
2021/05/11 00:11:33;;;;;;;6.82;3.00;;;;;;;;;;4992769;28;39180;-77
2021/05/11 00:14:00;;;;;;;9.10;3.10;;;;;;;;;;5000650;28;35617;-77
2021/05/11 00:16:27;;;;;;;8.27;3.15;;;;;;;;;;4993095;28;47799;-77
2021/05/11 00:18:54;;;;;;;6.13;2.90;;;;;;;;;;4972866;28;37804;-77
2021/05/11 00:21:20;;;;;;;5.10;3.35;;;;;;;;;;4987502;28;37433;-78
2021/05/11 00:23:47;;;;;;;10.60;3.50;;;;;;;;;;5004723;28;38279;-78
2021/05/11 00:26:13;;;;;;;7.60;3.63;;;;;;;;;;5001032;28;37600;-79
2021/05/11 00:28:40;;;;;;;10.82;3.65;;;;;;;;;;4998903;28;40202;-77
2021/05/11 00:31:06;;;;;;;10.75;4.07;;;;;;;;;;4985215;28;37660;-78
2021/05/11 00:33:32;;;;;;;9.52;3.25;;;;;;;;;;5000215;28;37619;-77
2021/05/11 00:35:59;;;;;;;10.90;3.65;;;;;;;;;;4997917;28;35716;-77
2021/05/11 00:38:25;;;;;;;14.38;4.15;;;;;;;;;;4997720;28;36987;-78
2021/05/11 00:40:51;;;;;;;10.45;4.30;;;;;;;;;;4997466;28;38842;-77
2021/05/11 00:43:18;;;;;;;12.10;4.07;;;;;;;;;;4997560;28;39117;-77
2021/05/11 00:45:44;;;;;;;11.40;3.90;;;;;;;;;;5007620;28;36928;-78
2021/05/11 00:48:11;;;;;;;11.35;3.83;;;;;;;;;;4997204;28;39489;-78
2021/05/11 00:50:37;;;;;;;9.68;3.97;;;;;;;;;;4990106;28;40008;-78
2021/05/11 00:53:03;;;;;;;9.10;3.70;;;;;;;;;;5000621;28;37564;-78
2021/05/11 00:55:30;;;;;;;14.45;3.70;;;;;;;;;;4997226;28;37233;-77
2021/05/11 00:57:56;;;;;;;12.43;3.63;;;;;;;;;;4999415;28;39240;-78
2021/05/11 01:00:23;;;;;;;9.23;3.83;;;;;;;;;;4994915;28;38148;-77
2021/05/11 01:02:49;;;;;;;10.73;4.03;;;;;;;;;;4984888;28;36998;-78
2021/05/11 01:05:16;;;;;;;10.88;4.13;;;;;;;;;;4998988;28;37964;-77
2021/05/11 01:07:42;;;;;;;7.72;3.13;;;;;;;;;;4984745;28;39199;-78
2021/05/11 01:10:09;;;;;;;12.88;4.57;;;;;;;;;;4969591;28;35729;-78
2021/05/11 01:12:35;;;;;;;12.52;4.25;;;;;;;;;;4991470;28;37462;-77
2021/05/11 01:15:02;;;;;;;10.90;4.00;;;;;;;;;;4999884;28;37053;-78
2021/05/11 01:17:32;;;;;;;10.07;3.88;;;;;;;;;;4996949;28;48736;-78
2021/05/11 01:20:00;;;;;;;8.38;4.20;;;;;;;;;;4977251;28;37423;-77
2021/05/11 01:25:03;;;;;;;12.57;4.72;;;;;;;;;;4994261;28;36966;-78
2021/05/11 01:44:32;;;;;;;12.30;4.97;;;;;;;;;;4993124;28;38558;-78
2021/05/11 01:50:01;;;;;;;16.35;4.65;;;;;;;;;;5000630;28;40209;-77
2021/05/11 01:52:43;;;;;;;11.32;4.30;;;;;;;;;;4987716;28;47632;-77
2021/05/11 02:25:04;;;;;;;11.13;5.93;;;;;;;;;;5000548;28;39913;-77
2021/05/11 02:27:30;;;;;;;6.93;4.47;;;;;;;;;;5003128;28;48964;-78
2021/05/11 02:29:57;;;;;;;12.02;4.95;;;;;;;;;;4990839;28;36752;-78
2021/05/11 02:32:23;;;;;;;10.02;5.05;;;;;;;;;;4987630;28;37781;-77
2021/05/11 02:34:50;;;;;;;13.70;5.25;;;;;;;;;;4999682;28;38576;-77
2021/05/11 02:37:16;;;;;;;14.68;5.10;;;;;;;;;;4972529;28;37055;-77
2021/05/11 02:39:43;;;;;;;7.53;4.50;;;;;;;;;;4992793;28;37103;-78
2021/05/11 02:42:09;;;;;;;16.73;5.65;;;;;;;;;;4986401;28;38216;-78
2021/05/11 02:44:45;;;;;;;13.82;5.50;;;;;;;;;;4995247;28;20078;-78
2021/05/11 02:47:11;;;;;;;8.27;4.95;;;;;;;;;;4974239;28;38397;-77
2021/05/11 02:49:46;;;;;;;12.95;5.28;;;;;;;;;;4987232;28;33983;-77
2021/05/11 02:52:13;;;;;;;13.13;5.60;;;;;;;;;;4993600;28;39123;-77
2021/05/11 02:54:39;;;;;;;11.90;5.68;;;;;;;;;;4993359;28;37807;-78
2021/05/11 02:57:06;;;;;;;10.55;5.70;;;;;;;;;;4999373;28;36652;-77
2021/05/11 02:59:32;;;;;;;14.50;5.47;;;;;;;;;;5000863;28;37341;-77
2021/05/11 03:01:59;;;;;;;12.50;5.50;;;;;;;;;;5000987;28;38380;-77
2021/05/11 03:04:25;;;;;;;12.60;5.53;;;;;;;;;;5001435;28;37562;-77
2021/05/11 03:06:56;;;;;;;9.05;5.65;;;;;;;;;;4974753;28;38206;-77
2021/05/11 03:09:24;;;;;;;17.67;5.50;;;;;;;;;;4980503;28;36124;-77
2021/05/11 03:11:50;;;;;;;12.85;4.80;;;;;;;;;;4990746;28;38427;-78
2021/05/11 03:14:16;;;;;;;13.02;4.93;;;;;;;;;;4981200;28;37696;-77
2021/05/11 03:16:43;;;;;;;11.05;5.30;;;;;;;;;;4992278;28;38274;-77
2021/05/11 03:19:09;;;;;;;9.87;5.10;;;;;;;;;;4995939;28;35689;-78
2021/05/11 03:21:36;;;;;;;12.23;5.30;;;;;;;;;;4988095;28;37936;-78
2021/05/11 03:24:03;;;;;;;9.70;5.27;;;;;;;;;;5000964;28;38930;-77
2021/05/11 03:26:29;;;;;;;9.20;5.40;;;;;;;;;;4991898;28;37303;-77
2021/05/11 03:28:55;;;;;;;7.90;5.53;;;;;;;;;;4997981;28;37292;-78
2021/05/11 03:31:22;;;;;;;11.60;5.30;;;;;;;;;;4977806;28;37575;-77
2021/05/11 03:33:48;;;;;;;8.63;4.83;;;;;;;;;;4989760;28;37428;-78
2021/05/11 03:36:14;;;;;;;7.53;4.13;;;;;;;;;;4995857;28;37358;-77
2021/05/11 03:38:43;;;;;;;14.10;5.37;;;;;;;;;;4993228;28;36965;-78
2021/05/11 03:41:12;;;;;;;10.37;5.13;;;;;;;;;;4972557;28;37296;-77
2021/05/11 03:43:48;;;;;;;11.87;5.90;;;;;;;;;;4998985;28;37094;-77
2021/05/11 03:46:15;;;;;;;13.27;5.53;;;;;;;;;;4986358;28;37940;-78
2021/05/11 03:48:41;;;;;;;11.90;4.63;;;;;;;;;;4984381;28;35824;-78
2021/05/11 03:51:07;;;;;;;14.80;5.33;;;;;;;;;;4984150;28;38051;-77
2021/05/11 03:53:34;;;;;;;10.93;4.87;;;;;;;;;;4994970;28;39859;-77
2021/05/11 03:56:01;;;;;;;11.13;5.10;;;;;;;;;;4994140;28;38471;-78
2021/05/11 03:58:28;;;;;;;9.63;4.70;;;;;;;;;;4996184;28;37506;-77
2021/05/11 04:00:54;;;;;;;12.20;6.00;;;;;;;;;;4980106;28;38163;-77
2021/05/11 04:03:21;;;;;;;6.50;3.80;;;;;;;;;;4995291;28;38678;-78
2021/05/11 04:05:49;;;;;;;8.50;4.70;;;;;;;;;;4975735;28;38348;-78
2021/05/11 04:08:27;;;;;;;12.73;5.90;;;;;;;;;;4976409;28;36035;-77
2021/05/11 04:10:58;;;;;;;16.48;6.20;;;;;;;;;;4999806;28;39255;-77
2021/05/11 04:16:22;;;;;;;14.33;6.30;;;;;;;;;;5000467;28;37277;-77
2021/05/11 04:18:52;;;;;;;10.67;4.90;;;;;;;;;;5003041;28;48745;-78
2021/05/11 04:21:19;;;;;;;10.03;4.60;;;;;;;;;;4993249;28;38880;-78
2021/05/11 04:23:46;;;;;;;10.13;4.90;;;;;;;;;;4974946;28;37371;-77
2021/05/11 04:26:13;;;;;;;9.57;4.73;;;;;;;;;;4977943;28;37354;-77
2021/05/11 04:28:40;;;;;;;13.17;6.40;;;;;;;;;;4986853;28;37005;-78
2021/05/11 04:31:07;;;;;;;16.13;6.67;;;;;;;;;;4992853;28;37781;-78
2021/05/11 04:33:33;;;;;;;14.13;5.67;;;;;;;;;;5003749;28;38645;-78
2021/05/11 04:36:00;;;;;;;9.23;4.93;;;;;;;;;;4996519;28;37481;-78
2021/05/11 04:38:27;;;;;;;10.23;5.83;;;;;;;;;;5004469;28;37513;-78
2021/05/11 04:40:53;;;;;;;16.45;7.13;;;;;;;;;;5002204;28;38494;-77
2021/05/11 04:43:22;;;;;;;21.40;8.03;;;;;;;;;;4973045;28;37512;-77
2021/05/11 04:45:50;;;;;;;14.20;8.00;;;;;;;;;;4976786;28;38400;-78
2021/05/11 04:48:17;;;;;;;14.43;6.97;;;;;;;;;;5000089;28;35987;-77
2021/05/11 04:50:43;;;;;;;13.20;6.30;;;;;;;;;;4998876;28;39484;-77
2021/05/11 04:53:11;;;;;;;12.73;7.10;;;;;;;;;;4989758;28;37402;-78
2021/05/11 04:55:37;;;;;;;14.47;7.23;;;;;;;;;;4994725;28;39177;-77
2021/05/11 04:58:04;;;;;;;13.17;6.97;;;;;;;;;;4993820;28;37713;-77
2021/05/11 05:00:30;;;;;;;18.73;8.37;;;;;;;;;;4994635;28;38870;-78
2021/05/11 05:03:00;;;;;;;15.53;6.90;;;;;;;;;;4986932;28;37757;-77
2021/05/11 05:05:26;;;;;;;20.40;9.87;;;;;;;;;;4987554;28;41617;-78
2021/05/11 05:07:53;;;;;;;19.33;8.63;;;;;;;;;;4987660;28;36754;-77
2021/05/11 05:10:19;;;;;;;20.83;8.70;;;;;;;;;;4984130;28;41414;-77
2021/05/11 05:12:45;;;;;;;16.17;9.07;;;;;;;;;;4969970;28;38589;-77
2021/05/11 05:15:12;;;;;;;13.85;7.65;;;;;;;;;;4985130;28;40298;-77
2021/05/11 05:17:39;;;;;;;14.52;8.20;;;;;;;;;;4987131;28;36803;-77
2021/05/11 05:20:05;;;;;;;15.25;9.98;;;;;;;;;;4986323;28;39989;-77
2021/05/11 05:22:32;;;;;;;18.50;10.57;;;;;;;;;;4968481;28;48544;-78
2021/05/11 05:25:01;;;;;;;19.10;9.35;;;;;;;;;;4971335;28;38556;-77
2021/05/11 05:27:38;;;;;;;16.02;6.90;;;;;;;;;;4978765;28;47181;-77
2021/05/11 05:30:05;;;;;;;17.30;8.00;;;;;;;;;;4987567;28;37017;-77
2021/05/11 05:32:32;;;;;;;14.95;7.03;;;;;;;;;;4993080;28;38770;-76
2021/05/11 05:34:58;;;;;;;17.33;8.98;;;;;;;;;;4994184;28;39915;-77
2021/05/11 05:37:24;;;;;;;13.82;7.22;;;;;;;;;;4990922;28;36519;-76
2021/05/11 05:39:55;;;;;;;18.17;7.47;;;;;;;;;;4995941;28;39196;-77
2021/05/11 05:42:22;;;;;;;18.88;8.15;;;;;;;;;;4969227;28;39138;-76
2021/05/11 05:44:48;;;;;;;15.77;6.72;;;;;;;;;;4972034;28;38773;-77
2021/05/11 05:47:14;;;;;;;18.55;8.07;;;;;;;;;;4991149;28;37416;-76
2021/05/11 05:49:44;;;;;;;14.65;7.78;;;;;;;;;;4994019;28;40012;-76
2021/05/11 05:52:17;;;;;;;15.55;6.93;;;;;;;;;;4974924;28;39404;-77
2021/05/11 05:54:45;;;;;;;16.88;6.47;;;;;;;;;;4986325;28;36330;-76
2021/05/11 05:57:11;;;;;;;13.65;7.07;;;;;;;;;;4985868;28;37786;-76
2021/05/11 05:59:43;;;;;;;15.02;7.35;;;;;;;;;;4991962;28;39555;-77
2021/05/11 06:02:15;;;;;;;14.80;6.93;;;;;;;;;;4985014;28;39971;-77
2021/05/11 06:04:41;;;;;;;16.75;6.78;;;;;;;;;;4988893;28;38158;-79
2021/05/11 06:07:07;;;;;;;16.20;6.30;;;;;;;;;;4988752;28;37017;-78
2021/05/11 06:09:34;;;;;;;10.32;5.13;;;;;;;;;;4992977;28;39278;-79
2021/05/11 06:12:05;;;;;;;16.95;4.97;;;;;;;;;;4999913;28;38932;-78
2021/05/11 06:17:17;;;;;;;15.65;4.60;;;;;;;;;;5001457;28;38134;-79
2021/05/11 06:19:54;;;;;;;13.90;4.75;;;;;;;;;;5000946;28;39783;-79
2021/05/11 06:22:21;;;;;;;14.80;4.20;;;;;;;;;;5007758;28;38701;-77
2021/05/11 06:24:47;;;;;;;12.27;4.00;;;;;;;;;;5004840;28;38458;-79
2021/05/11 06:27:14;;;;;;;15.20;3.90;;;;;;;;;;4984627;28;35806;-77
2021/05/11 06:29:43;;;;;;;10.88;4.20;;;;;;;;;;4983857;28;38991;-77
2021/05/11 06:32:09;;;;;;;16.75;3.97;;;;;;;;;;4999223;28;38796;-77
2021/05/11 06:34:38;;;;;;;13.02;4.30;;;;;;;;;;4997759;28;39296;-77
2021/05/11 06:37:05;;;;;;;13.98;3.55;;;;;;;;;;4984770;28;35745;-77
2021/05/11 06:39:31;;;;;;;15.00;3.88;;;;;;;;;;5012315;28;38683;-76
2021/05/11 06:41:59;;;;;;;12.95;4.00;;;;;;;;;;4994588;28;37496;-77
2021/05/11 06:54:38;;;;;;;11.05;3.70;;;;;;;;;;5005850;28;48019;-78
2021/05/11 06:57:06;;;;;;;10.50;3.53;;;;;;;;;;4984164;28;38167;-78
2021/05/11 06:59:32;;;;;;;11.77;3.97;;;;;;;;;;5005658;28;38273;-79
2021/05/11 07:02:02;;;;;;;10.25;3.80;;;;;;;;;;4999056;28;38468;-76
2021/05/11 07:04:29;;;;;;;12.13;4.05;;;;;;;;;;4989095;28;47374;-76
2021/05/11 07:06:57;;;;;;;12.93;4.38;;;;;;;;;;4994800;28;37061;-77
2021/05/11 07:15:02;;;;;;;10.57;4.22;;;;;;;;;;4996655;28;39133;-76
2021/05/11 07:17:29;;;;;;;10.52;3.95;;;;;;;;;;4969499;28;48685;-78
2021/05/11 07:19:56;;;;;;;13.13;4.13;;;;;;;;;;4994774;28;37759;-77
2021/05/11 07:22:22;;;;;;;15.73;4.18;;;;;;;;;;4987934;28;39075;-77
2021/05/11 07:24:53;;;;;;;13.63;4.80;;;;;;;;;;4974793;28;40027;-77
2021/05/11 07:32:13;;;;;;;13.35;4.38;;;;;;;;;;4998850;28;40312;-77
2021/05/11 07:34:43;;;;;;;12.57;3.97;;;;;;;;;;4995646;28;38170;-76
2021/05/11 07:37:10;;;;;;;12.32;4.47;;;;;;;;;;4982963;28;37100;-76
2021/05/11 07:39:38;;;;;;;12.15;4.25;;;;;;;;;;4985577;28;40825;-76
2021/05/11 07:42:06;;;;;;;11.30;3.78;;;;;;;;;;4983001;28;37682;-76
2021/05/11 07:44:34;;;;;;;6.72;3.45;;;;;;;;;;4997739;28;38550;-76
2021/05/11 07:47:22;;;;;;;14.55;4.40;;;;;;;;;;4998263;28;37311;-77
2021/05/11 08:06:11;;;;;;;13.85;4.93;;;;;;;;;;4998634;28;38386;-76
2021/05/11 08:16:59;;;;;;;10.40;4.35;;;;;;;;;;5004817;28;39165;-77
2021/05/11 08:28:01;;;;;;;12.32;4.22;;;;;;;;;;4958862;28;47492;-77
2021/05/11 08:30:27;;;;;;;11.82;4.25;;;;;;;;;;5011795;28;47375;-78
2021/05/11 08:32:54;;;;;;;15.27;4.68;;;;;;;;;;5007823;28;39717;-78
2021/05/11 08:35:22;;;;;;;13.30;5.13;;;;;;;;;;5001063;28;37543;-78
2021/05/11 08:37:48;;;;;;;10.77;4.38;;;;;;;;;;5006440;28;38526;-77
2021/05/11 08:40:15;;;;;;;9.98;5.00;;;;;;;;;;5003459;28;36841;-77
2021/05/11 08:42:41;;;;;;;11.77;4.70;;;;;;;;;;5007551;28;38779;-78
2021/05/11 08:45:09;;;;;;;12.98;5.68;;;;;;;;;;5001051;28;38929;-78
2021/05/11 08:47:52;;;;;;;11.40;4.97;;;;;;;;;;5003566;28;36921;-79
2021/05/11 09:06:34;;;;;;;10.00;5.72;;;;;;;;;;4997097;28;39799;-78
2021/05/11 09:09:10;;;;;;;11.80;4.85;;;;;;;;;;4986511;28;37090;-78
2021/05/11 09:58:50;;;;;;;13.43;5.25;;;;;;;;;;5009328;28;39613;-78
2021/05/11 10:13:43;;;;;;;16.05;7.25;;;;;;;;;;4991719;28;39217;-77
2021/05/11 10:48:25;;;;;;;11.43;4.88;;;;;;;;;;5003865;28;38031;-78
2021/05/11 10:50:52;;;;;;;;;;;;;;;;;;4996925;28;36973;-78
2021/05/11 10:53:57;;;;;;;12.73;5.07;;;;;;;;;;4988782;28;39349;-77
2021/05/11 11:00:15;;;;;;;13.30;5.35;;;;;;;;;;5005629;28;40271;-77
2021/05/11 11:04:51;;;;;;;15.15;3.92;;;;;;;;;;5003089;28;39757;-78
2021/05/11 11:07:18;;;;;;;12.82;4.45;;;;;;;;;;4982341;28;37313;-77
2021/05/11 11:09:59;;;;;;;9.30;4.18;;;;;;;;;;5001472;28;38460;-78
2021/05/11 11:12:34;;;;;;;9.95;3.88;;;;;;;;;;4997243;28;38198;-78
2021/05/11 11:15:02;;;;;;;10.75;4.45;;;;;;;;;;5007138;28;37335;-78
2021/05/11 11:17:28;;;;;;;10.25;3.90;;;;;;;;;;5006630;28;48724;-78
2021/05/11 11:20:00;;;;;;;14.50;3.85;;;;;;;;;;5001941;28;38243;-78
2021/05/11 11:25:15;;;;;;;4.85;2.78;;;;;;;;;;4994218;28;40683;-79
2021/05/11 11:27:41;;;;;;;7.18;3.13;;;;;;;;;;4984809;28;39083;-78
2021/05/11 11:30:11;;;;;;;12.27;4.18;;;;;;;;;;4974672;28;38179;-76
2021/05/11 11:32:38;;;;;;;8.65;3.00;;;;;;;;;;4997501;28;37716;-77
2021/05/11 11:35:05;;;;;;;10.70;3.08;;;;;;;;;;4992627;28;39706;-78
2021/05/11 11:37:32;;;;;;;6.90;3.03;;;;;;;;;;4984842;28;47521;-78
2021/05/11 11:40:02;;;;;;;7.28;3.30;;;;;;;;;;4997777;28;38099;-76
2021/05/11 11:42:37;;;;;;;9.40;3.58;;;;;;;;;;4973145;28;47604;-78
2021/05/11 11:45:05;;;;;;;9.77;3.70;;;;;;;;;;4991156;28;39947;-77
2021/05/11 11:47:32;;;;;;;10.93;4.15;;;;;;;;;;4981180;28;48365;-76
2021/05/11 11:50:02;;;;;;;10.27;4.00;;;;;;;;;;5002643;28;37536;-76
2021/05/11 12:00:11;;;;;;;9.43;3.40;;;;;;;;;;5002951;28;38653;-75
2021/05/11 12:02:37;;;;;;;7.70;2.63;;;;;;;;;;5001400;28;38557;-74
2021/05/11 12:05:13;;;;;;;7.28;2.53;;;;;;;;;;4996438;28;40386;-74
2021/05/11 12:08:20;;;;;;;7.85;3.08;;;;;;;;;;4993219;28;48602;-76
2021/05/11 12:10:34;;;;;;;7.85;2.40;;;;;;;;;;4999766;28;47586;-78
2021/05/11 12:13:04;;;;;;;7.68;2.03;;;;;;;;;;4993887;28;37181;-78
2021/05/11 12:15:30;;;;;;;7.40;2.40;;;;;;;;;;4979923;28;47528;-77
2021/05/11 12:18:05;;;;;;;8.73;2.47;;;;;;;;;;4980074;28;37367;-79
2021/05/11 12:20:32;;;;;;;7.88;2.42;;;;;;;;;;4985152;28;47101;-77
2021/05/11 12:23:02;;;;;;;9.60;2.75;;;;;;;;;;4976953;28;36194;-76
2021/05/11 12:25:29;;;;;;;8.70;2.67;;;;;;;;;;4994020;28;47177;-76
2021/05/11 12:27:57;;;;;;;9.43;2.85;;;;;;;;;;4995892;28;38265;-76
2021/05/11 12:30:38;;;;;;;8.35;3.00;;;;;;;;;;4981520;28;37600;-76
2021/05/11 12:33:05;;;;;;;7.55;1.95;;;;;;;;;;4982657;28;36047;-77
2021/05/11 12:35:32;;;;;;;9.77;2.38;;;;;;;;;;4978274;28;37448;-76
2021/05/11 12:38:05;;;;;;;8.00;2.45;;;;;;;;;;5003246;28;39378;-76
2021/05/11 12:40:41;;;;;;;9.98;2.20;;;;;;;;;;4981771;28;47447;-77
2021/05/11 12:43:08;;;;;;;6.07;1.77;;;;;;;;;;5003487;28;37198;-78
2021/05/11 12:45:48;;;;;;;8.20;1.90;;;;;;;;;;4984229;28;39150;-77
2021/05/11 12:48:15;;;;;;;4.53;1.98;;;;;;;;;;4993953;28;38975;-78
2021/05/11 12:50:43;;;;;;;6.38;2.08;;;;;;;;;;5001809;28;38468;-78
2021/05/11 12:53:36;;;;;;;10.43;2.40;;;;;;;;;;4988724;28;35851;-77
2021/05/11 12:56:18;;;;;;;6.70;2.58;;;;;;;;;;4976758;28;38420;-77
2021/05/11 13:01:54;;;;;;;7.15;2.47;;;;;;;;;;4971910;28;48762;-78
2021/05/11 13:04:59;;;;;;;5.93;2.58;;;;;;;;;;4972137;28;36010;-76
2021/05/11 13:15:37;;;;;;;4.13;1.40;;;;;;;;;;4993792;28;38047;-76
2021/05/11 13:26:08;;;;;;;9.52;3.05;;;;;;;;;;4999258;28;37961;-76
2021/05/11 13:31:10;;;;;;;7.15;2.83;;;;;;;;;;5002611;28;37678;-76
2021/05/11 13:34:00;;;;;;;9.02;3.83;;;;;;;;;;4992998;28;37128;-77
2021/05/11 13:36:26;;;;;;;10.15;3.72;;;;;;;;;;4979123;28;36945;-77
2021/05/11 13:38:53;;;;;;;13.38;5.05;;;;;;;;;;4999495;28;37303;-76
2021/05/11 13:41:19;;;;;;;6.47;3.03;;;;;;;;;;4982249;28;37471;-77
2021/05/11 13:43:45;;;;;;;8.57;4.07;;;;;;;;;;4985093;28;37235;-77
2021/05/11 13:46:12;;;;;;;9.02;4.43;;;;;;;;;;4999904;28;36857;-76
2021/05/11 13:48:40;;;;;;;12.20;4.65;;;;;;;;;;5004519;28;37612;-76
2021/05/11 13:53:38;;;;;;;8.80;4.53;;;;;;;;;;5003206;28;39720;-76
2021/05/11 14:04:06;;;;;;;10.93;4.40;;;;;;;;;;4999539;28;38529;-76
2021/05/11 14:06:32;;;;;;;11.68;4.32;;;;;;;;;;5002943;28;37998;-76
2021/05/11 14:08:58;;;;;;;12.90;4.22;;;;;;;;;;5002892;28;39726;-76
2021/05/11 14:11:25;;;;;;;8.18;2.90;;;;;;;;;;4993730;28;38344;-76
2021/05/11 14:13:52;;;;;;;11.65;3.03;;;;;;;;;;4976195;28;37430;-76
2021/05/11 14:16:18;;;;;;;11.13;2.83;;;;;;;;;;4978585;28;36062;-78
2021/05/11 14:18:44;;;;;;;7.55;2.83;;;;;;;;;;4979750;28;37661;-77
2021/05/11 14:21:11;;;;;;;7.65;2.10;;;;;;;;;;4977679;28;37539;-75
2021/05/11 14:23:37;;;;;;;10.45;3.42;;;;;;;;;;4995604;28;37817;-76
2021/05/11 14:26:03;;;;;;;10.48;3.88;;;;;;;;;;4989829;28;37738;-76
2021/05/11 14:28:30;;;;;;;11.00;4.32;;;;;;;;;;4995369;28;39819;-77
2021/05/11 14:30:56;;;;;;;9.20;4.53;;;;;;;;;;4993485;28;39539;-74
2021/05/11 14:33:23;;;;;;;16.42;4.85;;;;;;;;;;4993931;28;37279;-76
2021/05/11 14:35:49;;;;;;;12.70;3.03;;;;;;;;;;4994598;28;37070;-78
2021/05/11 14:38:15;;;;;;;7.07;2.47;;;;;;;;;;4994932;28;38915;-78
2021/05/11 14:40:42;;;;;;;7.35;2.40;;;;;;;;;;4992976;28;38884;-78
2021/05/11 14:43:08;;;;;;;5.32;1.85;;;;;;;;;;4996993;28;38181;-77
2021/05/11 14:45:35;;;;;;;10.38;2.15;;;;;;;;;;4976727;28;35372;-78
2021/05/11 14:48:01;;;;;;;13.75;3.35;;;;;;;;;;4981049;28;38635;-77
2021/05/11 14:50:27;;;;;;;11.90;3.00;;;;;;;;;;4997664;28;49124;-77
2021/05/11 14:52:59;;;;;;;11.23;3.17;;;;;;;;;;4996468;28;38665;-77
2021/05/11 14:55:25;;;;;;;7.70;2.65;;;;;;;;;;5005077;28;37166;-77
2021/05/11 14:57:55;;;;;;;5.25;1.92;;;;;;;;;;4984620;28;37908;-78
2021/05/11 15:00:22;;;;;;;3.10;1.92;;;;;;;;;;4996169;28;39517;-77
2021/05/11 15:02:48;;;;;;;3.15;1.85;;;;;;;;;;5004707;28;37834;-77
2021/05/11 15:05:15;;;;;;;4.53;1.50;;;;;;;;;;4997197;28;36364;-77
2021/05/11 15:07:41;;;;;;;2.25;1.70;;;;;;;;;;4994417;28;39596;-77
2021/05/11 15:10:08;;;;;;;4.05;1.90;;;;;;;;;;4990253;28;38439;-78
2021/05/11 15:12:35;;;;;;;6.97;2.33;;;;;;;;;;4993554;28;38111;-77
2021/05/11 15:15:01;;;;;;;5.50;2.28;;;;;;;;;;5002797;28;36876;-76
2021/05/11 15:19:58;;;;;;;6.03;2.75;;;;;;;;;;5001564;28;39229;-76
2021/05/11 15:22:25;;;;;;;9.32;2.88;;;;;;;;;;5001955;28;38181;-76
2021/05/11 15:24:53;;;;;;;5.43;2.72;;;;;;;;;;4982591;28;37138;-76
2021/05/11 15:27:20;;;;;;;8.32;2.85;;;;;;;;;;4983811;28;38191;-77
2021/05/11 15:29:46;;;;;;;6.68;2.45;;;;;;;;;;4999571;28;39060;-75
2021/05/11 15:32:31;;;;;;;6.45;2.53;;;;;;;;;;4994998;28;38972;-77
2021/05/11 15:34:58;;;;;;;6.45;2.30;;;;;;;;;;4994305;28;37004;-75
2021/05/11 15:37:24;;;;;;;5.15;2.85;;;;;;;;;;4999584;28;39714;-76
2021/05/11 15:39:50;;;;;;;7.90;2.42;;;;;;;;;;4984923;28;38476;-76
2021/05/11 15:42:17;;;;;;;5.15;2.17;;;;;;;;;;4992062;28;38632;-75
2021/05/11 15:44:43;;;;;;;6.65;1.98;;;;;;;;;;4993662;28;36906;-75
2021/05/11 15:47:09;;;;;;;6.18;1.98;;;;;;;;;;4993566;28;38884;-76
2021/05/11 15:49:36;;;;;;;3.70;1.80;;;;;;;;;;4984799;28;37351;-75
2021/05/11 15:52:02;;;;;;;8.68;1.65;;;;;;;;;;4994277;28;38051;-76
2021/05/11 15:54:29;;;;;;;5.10;2.00;;;;;;;;;;4991827;28;36468;-76
2021/05/11 15:56:55;;;;;;;2.85;1.60;;;;;;;;;;4978994;28;37984;-76
2021/05/11 15:59:22;;;;;;;4.72;2.47;;;;;;;;;;4989464;28;39358;-76
2021/05/11 16:01:48;;;;;;;5.53;2.30;;;;;;;;;;4996505;28;36916;-76
2021/05/11 16:04:14;;;;;;;4.15;2.17;;;;;;;;;;5001383;28;35565;-76
2021/05/11 16:06:41;;;;;;;2.97;1.50;;;;;;;;;;4994950;28;37832;-76
2021/05/11 16:09:07;;;;;;;7.78;2.00;;;;;;;;;;4987106;28;36983;-77
2021/05/11 16:11:34;;;;;;;3.60;1.92;;;;;;;;;;4983973;28;36913;-76
2021/05/11 16:14:00;;;;;;;3.50;1.45;;;;;;;;;;5007427;28;37243;-76
2021/05/11 16:16:27;;;;;;;3.85;1.65;;;;;;;;;;5003130;28;47826;-76
2021/05/11 16:18:54;;;;;;;4.70;2.17;;;;;;;;;;4994948;28;37351;-76
2021/05/11 16:21:20;;;;;;;4.13;2.50;;;;;;;;;;5008084;28;38986;-75
2021/05/11 16:23:47;;;;;;;6.65;2.63;;;;;;;;;;4994396;28;36592;-75
2021/05/11 16:26:14;;;;;;;6.30;2.88;;;;;;;;;;4987439;28;38254;-76
2021/05/11 16:28:40;;;;;;;8.02;4.25;;;;;;;;;;4980814;28;37298;-76
2021/05/11 16:31:07;;;;;;;8.90;5.20;;;;;;;;;;4999060;28;38314;-75
2021/05/11 16:33:33;;;;;;;7.25;5.85;;;;;;;;;;5001542;28;36728;-76
2021/05/11 16:35:59;;;;;;;11.15;6.75;;;;;;;;;;4997212;28;37085;-76
2021/05/11 16:38:26;;;;;;;8.38;6.13;;;;;;;;;;4993164;28;38485;-77
2021/05/11 16:40:54;;;;;;;12.20;6.05;;;;;;;;;;4996070;28;37514;-76
2021/05/11 16:43:23;;;;;;;9.82;5.30;;;;;;;;;;4999558;28;36833;-76
2021/05/11 16:45:49;;;;;;;7.22;5.05;;;;;;;;;;5000425;28;39751;-75
2021/05/11 16:48:16;;;;;;;9.20;5.05;;;;;;;;;;4983031;28;37507;-76
2021/05/11 16:50:43;;;;;;;9.40;4.28;;;;;;;;;;4979400;28;37095;-76
2021/05/11 16:53:15;;;;;;;4.88;3.20;;;;;;;;;;4979497;28;38234;-76
2021/05/11 16:55:41;;;;;;;9.20;3.60;;;;;;;;;;4997049;28;40264;-76
2021/05/11 16:58:08;;;;;;;3.95;2.00;;;;;;;;;;4994629;28;38037;-76
2021/05/11 17:00:35;;;;;;;2.47;2.03;;;;;;;;;;4999066;28;38315;-76
2021/05/11 17:03:02;;;;;;;4.10;1.70;;;;;;;;;;5004994;28;37442;-76
2021/05/11 17:05:29;;;;;;;4.07;1.77;;;;;;;;;;5004953;28;48881;-76
2021/05/11 17:07:55;;;;;;;1.85;1.40;;;;;;;;;;4997586;28;39009;-75
2021/05/11 17:10:23;;;;;;;2.38;1.60;;;;;;;;;;4987217;28;38969;-76
2021/05/11 17:12:50;;;;;;;1.58;1.45;;;;;;;;;;4985853;28;36067;-77
2021/05/11 17:15:17;;;;;;;2.10;1.60;;;;;;;;;;5001128;28;39111;-76
2021/05/11 17:17:45;;;;;;;2.47;1.60;;;;;;;;;;4997416;28;38880;-76
2021/05/11 17:20:12;;;;;;;7.57;1.80;;;;;;;;;;4996380;28;39935;-76
2021/05/11 17:22:39;;;;;;;3.60;1.60;;;;;;;;;;5004660;28;37432;-76
2021/05/11 17:25:07;;;;;;;2.20;2.00;;;;;;;;;;4978162;28;37510;-76
2021/05/11 17:27:55;;;;;;;4.65;2.20;;;;;;;;;;4986843;28;37539;-77
2021/05/11 18:31:37;;;;;;;15.52;8.07;;;;;;;;;;4982179;28;20046;-78
2021/05/11 18:34:04;;;;;;;12.43;7.30;;;;;;;;;;4990830;28;36119;-78
2021/05/11 18:39:13;;;;;;;15.25;7.40;;;;;;;;;;4996323;28;39026;-79
2021/05/11 18:41:40;;;;;;;20.25;7.28;;;;;;;;;;4993218;28;38212;-78
2021/05/11 18:44:08;;;;;;;12.68;6.75;;;;;;;;;;4992794;28;37039;-78
2021/05/11 18:46:35;;;;;;;17.65;7.30;;;;;;;;;;4993177;28;39800;-78
2021/05/11 18:49:01;;;;;;;15.57;7.15;;;;;;;;;;5005539;28;38960;-79
2021/05/11 18:51:30;;;;;;;16.05;6.82;;;;;;;;;;5001764;28;49216;-79
2021/05/11 18:53:57;;;;;;;15.00;8.35;;;;;;;;;;4987295;28;38072;-79
2021/05/11 18:56:26;;;;;;;17.55;7.75;;;;;;;;;;4992240;28;39957;-78
2021/05/11 18:58:53;;;;;;;16.00;6.20;;;;;;;;;;4981857;28;40356;-78
2021/05/11 19:01:20;;;;;;;18.15;6.60;;;;;;;;;;4996995;28;37258;-78
2021/05/11 19:03:47;;;;;;;15.43;6.40;;;;;;;;;;4991282;28;36973;-80
2021/05/11 19:06:13;;;;;;;13.07;6.55;;;;;;;;;;4985595;28;39110;-78
2021/05/11 19:08:40;;;;;;;18.77;6.65;;;;;;;;;;4988400;28;38502;-78
2021/05/11 19:11:07;;;;;;;17.80;7.25;;;;;;;;;;4982371;28;39957;-78
2021/05/11 19:13:33;;;;;;;15.70;6.50;;;;;;;;;;4990180;28;35811;-77
2021/05/11 19:16:08;;;;;;;15.95;6.10;;;;;;;;;;4984047;28;38022;-78
2021/05/11 19:18:35;;;;;;;12.93;6.28;;;;;;;;;;5009836;28;49432;-78
2021/05/11 19:21:01;;;;;;;15.20;5.72;;;;;;;;;;4989993;28;37089;-77
2021/05/11 19:23:33;;;;;;;9.50;5.88;;;;;;;;;;4990118;28;47477;-77
2021/05/11 19:26:00;;;;;;;11.93;6.00;;;;;;;;;;4989633;28;38101;-77
2021/05/11 19:28:27;;;;;;;15.27;6.40;;;;;;;;;;4991069;28;38456;-77
2021/05/11 19:30:53;;;;;;;11.75;5.90;;;;;;;;;;4982665;28;39055;-76
2021/05/11 19:33:21;;;;;;;14.65;5.78;;;;;;;;;;4984485;28;38184;-77
2021/05/11 19:35:48;;;;;;;14.45;5.15;;;;;;;;;;4982176;28;35992;-77
2021/05/11 19:38:15;;;;;;;15.95;5.93;;;;;;;;;;4977666;28;38752;-77
2021/05/11 19:40:41;;;;;;;14.27;5.50;;;;;;;;;;4978416;28;38755;-77
2021/05/11 19:43:08;;;;;;;13.82;5.35;;;;;;;;;;4976558;28;35205;-77
2021/05/11 19:45:34;;;;;;;17.73;6.35;;;;;;;;;;4974820;28;38003;-77
2021/05/11 19:48:01;;;;;;;15.05;5.68;;;;;;;;;;4980001;28;37642;-77
2021/05/11 19:50:27;;;;;;;19.20;5.88;;;;;;;;;;5004153;28;38346;-77
2021/05/11 19:52:54;;;;;;;16.25;6.13;;;;;;;;;;5003723;28;36565;-77
2021/05/11 19:55:21;;;;;;;16.02;5.93;;;;;;;;;;4977536;28;39877;-76
2021/05/11 19:57:48;;;;;;;11.25;5.55;;;;;;;;;;4977655;28;40099;-77
2021/05/11 20:00:15;;;;;;;13.57;6.15;;;;;;;;;;4997889;28;37964;-77
2021/05/11 20:02:41;;;;;;;10.63;5.90;;;;;;;;;;4979186;28;36206;-79
2021/05/11 20:05:08;;;;;;;15.20;6.32;;;;;;;;;;4978353;28;39530;-77
2021/05/11 20:07:34;;;;;;;13.70;5.38;;;;;;;;;;4995976;28;39626;-78
2021/05/11 20:10:01;;;;;;;12.98;5.18;;;;;;;;;;4980422;28;39678;-78
2021/05/11 20:12:28;;;;;;;11.85;4.93;;;;;;;;;;4997004;28;36407;-79
2021/05/11 20:14:54;;;;;;;13.13;4.72;;;;;;;;;;4978008;28;41004;-78
2021/05/11 20:17:21;;;;;;;13.40;3.80;;;;;;;;;;4979392;28;39874;-78